Terminal Aerodrome Forecast
Issued by NWS New Orleans/Baton Rouge, LA

Home | Current Version | Previous Version | Text Only | Print | Product List | Glossary On
Versions: 1 2 3 4 5 6 7 8 9 10 11 12 13 14 15 16
000
FTUS44 KLIX 251606 AAC
TAFBTR
TAF AMD
KBTR 251606Z 2516/2612 16009KT P6SM BKN030
      TEMPO 2516/2518 SCT030
     FM260400 16007KT P6SM OVC020
     FM260600 15005KT P6SM OVC010=

USA.gov is the U.S. government's official web portal to all federal, state and local government web resources and services.